sensor_id;sensor_type;location;lat;lon;timestamp;P1;durP1;ratioP1;P2;durP2;ratioP2
34876;SDS011;21086;44.780;17.194;2022-09-19T00:01:49;5.03;;;1.50;;
34876;SDS011;21086;44.780;17.194;2022-09-19T00:04:20;3.78;;;2.00;;
34876;SDS011;21086;44.780;17.194;2022-09-19T00:06:49;2.40;;;1.60;;
34876;SDS011;21086;44.780;17.194;2022-09-19T00:09:18;2.85;;;1.50;;
34876;SDS011;21086;44.780;17.194;2022-09-19T00:11:47;3.17;;;1.80;;
34876;SDS011;21086;44.780;17.194;2022-09-19T00:14:16;5.15;;;1.60;;
34876;SDS011;21086;44.780;17.194;2022-09-19T00:16:46;2.78;;;1.38;;
34876;SDS011;21086;44.780;17.194;2022-09-19T00:19:14;3.50;;;1.45;;
34876;SDS011;21086;44.780;17.194;2022-09-19T00:21:44;2.17;;;1.42;;
34876;SDS011;21086;44.780;17.194;2022-09-19T00:24:14;3.08;;;1.40;;
34876;SDS011;21086;44.780;17.194;2022-09-19T00:27:01;3.33;;;1.80;;
34876;SDS011;21086;44.780;17.194;2022-09-19T00:29:31;3.25;;;1.27;;
34876;SDS011;21086;44.780;17.194;2022-09-19T00:32:00;5.32;;;1.90;;
34876;SDS011;21086;44.780;17.194;2022-09-19T00:34:27;3.67;;;1.92;;
34876;SDS011;21086;44.780;17.194;2022-09-19T00:36:56;4.05;;;1.42;;
34876;SDS011;21086;44.780;17.194;2022-09-19T00:39:24;4.32;;;1.92;;
34876;SDS011;21086;44.780;17.194;2022-09-19T00:41:51;4.10;;;1.77;;
34876;SDS011;21086;44.780;17.194;2022-09-19T00:46:49;2.63;;;1.45;;
34876;SDS011;21086;44.780;17.194;2022-09-19T00:49:38;5.10;;;1.63;;
34876;SDS011;21086;44.780;17.194;2022-09-19T00:52:10;3.38;;;1.63;;
34876;SDS011;21086;44.780;17.194;2022-09-19T00:54:43;2.22;;;1.40;;
34876;SDS011;21086;44.780;17.194;2022-09-19T00:57:12;3.58;;;1.50;;
34876;SDS011;21086;44.780;17.194;2022-09-19T00:59:42;3.22;;;1.40;;
34876;SDS011;21086;44.780;17.194;2022-09-19T01:02:13;2.30;;;1.55;;
34876;SDS011;21086;44.780;17.194;2022-09-19T01:04:45;2.80;;;1.20;;
34876;SDS011;21086;44.780;17.194;2022-09-19T01:07:23;3.05;;;1.50;;
34876;SDS011;21086;44.780;17.194;2022-09-19T01:16:22;3.42;;;1.30;;
34876;SDS011;21086;44.780;17.194;2022-09-19T01:22:16;3.30;;;1.30;;
34876;SDS011;21086;44.780;17.194;2022-09-19T01:25:02;3.55;;;1.15;;
34876;SDS011;21086;44.780;17.194;2022-09-19T01:30:22;2.38;;;1.13;;
34876;SDS011;21086;44.780;17.194;2022-09-19T01:32:56;3.03;;;1.30;;
34876;SDS011;21086;44.780;17.194;2022-09-19T01:35:30;1.75;;;1.23;;
34876;SDS011;21086;44.780;17.194;2022-09-19T01:38:02;2.90;;;1.30;;
34876;SDS011;21086;44.780;17.194;2022-09-19T01:40:36;3.25;;;1.50;;
34876;SDS011;21086;44.780;17.194;2022-09-19T01:43:10;2.35;;;1.45;;
34876;SDS011;21086;44.780;17.194;2022-09-19T01:45:42;7.40;;;1.48;;
34876;SDS011;21086;44.780;17.194;2022-09-19T01:50:59;5.18;;;1.40;;
34876;SDS011;21086;44.780;17.194;2022-09-19T02:01:58;4.95;;;1.40;;
34876;SDS011;21086;44.780;17.194;2022-09-19T02:07:27;3.60;;;2.05;;
34876;SDS011;21086;44.780;17.194;2022-09-19T02:10:00;3.22;;;1.83;;
34876;SDS011;21086;44.780;17.194;2022-09-19T02:12:32;3.03;;;1.95;;
34876;SDS011;21086;44.780;17.194;2022-09-19T02:15:05;5.07;;;2.00;;
34876;SDS011;21086;44.780;17.194;2022-09-19T02:17:40;2.50;;;1.60;;
34876;SDS011;21086;44.780;17.194;2022-09-19T02:20:24;3.60;;;1.92;;
34876;SDS011;21086;44.780;17.194;2022-09-19T02:22:59;2.50;;;1.58;;
34876;SDS011;21086;44.780;17.194;2022-09-19T02:25:32;5.13;;;1.80;;
34876;SDS011;21086;44.780;17.194;2022-09-19T02:28:04;4.72;;;2.05;;
34876;SDS011;21086;44.780;17.194;2022-09-19T02:30:34;2.70;;;1.70;;
34876;SDS011;21086;44.780;17.194;2022-09-19T02:33:02;2.55;;;1.70;;
34876;SDS011;21086;44.780;17.194;2022-09-19T02:35:35;1.95;;;1.42;;
34876;SDS011;21086;44.780;17.194;2022-09-19T02:40:54;1.65;;;1.05;;
34876;SDS011;21086;44.780;17.194;2022-09-19T02:43:40;1.90;;;1.15;;
34876;SDS011;21086;44.780;17.194;2022-09-19T02:46:15;2.58;;;1.20;;
34876;SDS011;21086;44.780;17.194;2022-09-19T02:48:53;2.45;;;1.20;;
34876;SDS011;21086;44.780;17.194;2022-09-19T02:51:30;2.00;;;1.20;;
34876;SDS011;21086;44.780;17.194;2022-09-19T02:54:08;1.55;;;1.20;;
34876;SDS011;21086;44.780;17.194;2022-09-19T02:56:42;1.95;;;1.17;;
34876;SDS011;21086;44.780;17.194;2022-09-19T02:59:12;1.95;;;1.23;;
34876;SDS011;21086;44.780;17.194;2022-09-19T03:01:45;2.95;;;1.67;;
34876;SDS011;21086;44.780;17.194;2022-09-19T03:04:18;2.08;;;1.23;;
34876;SDS011;21086;44.780;17.194;2022-09-19T03:10:07;5.68;;;1.30;;
34876;SDS011;21086;44.780;17.194;2022-09-19T03:18:19;3.45;;;1.20;;
34876;SDS011;21086;44.780;17.194;2022-09-19T03:20:53;6.28;;;1.60;;
34876;SDS011;21086;44.780;17.194;2022-09-19T03:23:25;3.70;;;1.20;;
34876;SDS011;21086;44.780;17.194;2022-09-19T03:26:09;4.20;;;1.20;;
34876;SDS011;21086;44.780;17.194;2022-09-19T03:28:39;1.85;;;1.25;;
34876;SDS011;21086;44.780;17.194;2022-09-19T03:31:06;3.47;;;1.23;;
34876;SDS011;21086;44.780;17.194;2022-09-19T03:33:33;3.15;;;1.10;;
34876;SDS011;21086;44.780;17.194;2022-09-19T03:36:01;3.58;;;1.00;;
34876;SDS011;21086;44.780;17.194;2022-09-19T03:38:32;3.10;;;1.27;;
34876;SDS011;21086;44.780;17.194;2022-09-19T03:40:59;1.33;;;0.88;;
34876;SDS011;21086;44.780;17.194;2022-09-19T03:43:26;4.00;;;1.23;;
34876;SDS011;21086;44.780;17.194;2022-09-19T03:45:55;3.88;;;1.60;;
34876;SDS011;21086;44.780;17.194;2022-09-19T03:48:23;3.80;;;1.30;;
34876;SDS011;21086;44.780;17.194;2022-09-19T03:50:53;2.55;;;1.15;;
34876;SDS011;21086;44.780;17.194;2022-09-19T03:53:20;2.55;;;1.00;;
34876;SDS011;21086;44.780;17.194;2022-09-19T03:55:47;4.68;;;0.95;;
34876;SDS011;21086;44.780;17.194;2022-09-19T03:58:14;2.50;;;1.20;;
34876;SDS011;21086;44.780;17.194;2022-09-19T04:00:42;6.18;;;2.10;;
34876;SDS011;21086;44.780;17.194;2022-09-19T04:03:09;3.72;;;1.92;;
34876;SDS011;21086;44.780;17.194;2022-09-19T04:05:36;5.90;;;1.70;;
34876;SDS011;21086;44.780;17.194;2022-09-19T04:08:03;4.57;;;1.50;;
34876;SDS011;21086;44.780;17.194;2022-09-19T04:10:30;2.58;;;1.20;;
34876;SDS011;21086;44.780;17.194;2022-09-19T04:12:56;3.60;;;1.35;;
34876;SDS011;21086;44.780;17.194;2022-09-19T04:15:24;7.68;;;1.90;;
34876;SDS011;21086;44.780;17.194;2022-09-19T04:17:50;2.58;;;1.35;;
34876;SDS011;21086;44.780;17.194;2022-09-19T04:20:17;5.85;;;1.63;;
34876;SDS011;21086;44.780;17.194;2022-09-19T04:22:44;5.72;;;1.33;;
34876;SDS011;21086;44.780;17.194;2022-09-19T04:25:11;3.90;;;1.70;;
34876;SDS011;21086;44.780;17.194;2022-09-19T04:27:40;4.13;;;1.38;;
34876;SDS011;21086;44.780;17.194;2022-09-19T04:30:08;8.13;;;1.70;;
34876;SDS011;21086;44.780;17.194;2022-09-19T04:32:37;2.55;;;1.30;;
34876;SDS011;21086;44.780;17.194;2022-09-19T04:35:09;6.38;;;1.58;;
34876;SDS011;21086;44.780;17.194;2022-09-19T04:37:36;3.05;;;1.20;;
34876;SDS011;21086;44.780;17.194;2022-09-19T04:40:02;5.30;;;1.73;;
34876;SDS011;21086;44.780;17.194;2022-09-19T04:42:30;5.13;;;2.17;;
34876;SDS011;21086;44.780;17.194;2022-09-19T04:44:58;2.67;;;1.10;;
34876;SDS011;21086;44.780;17.194;2022-09-19T04:47:25;3.22;;;1.63;;
34876;SDS011;21086;44.780;17.194;2022-09-19T04:49:54;4.97;;;2.10;;
34876;SDS011;21086;44.780;17.194;2022-09-19T04:52:25;3.30;;;1.30;;
34876;SDS011;21086;44.780;17.194;2022-09-19T04:54:52;2.55;;;1.50;;
34876;SDS011;21086;44.780;17.194;2022-09-19T04:57:20;2.85;;;1.23;;
34876;SDS011;21086;44.780;17.194;2022-09-19T04:59:47;4.65;;;1.70;;
34876;SDS011;21086;44.780;17.194;2022-09-19T05:02:14;6.75;;;2.33;;
34876;SDS011;21086;44.780;17.194;2022-09-19T05:04:41;3.92;;;1.80;;
34876;SDS011;21086;44.780;17.194;2022-09-19T05:07:11;5.10;;;2.30;;
34876;SDS011;21086;44.780;17.194;2022-09-19T05:09:40;5.22;;;2.20;;
34876;SDS011;21086;44.780;17.194;2022-09-19T05:12:10;2.72;;;1.30;;
34876;SDS011;21086;44.780;17.194;2022-09-19T05:14:37;2.72;;;1.52;;
34876;SDS011;21086;44.780;17.194;2022-09-19T05:17:05;2.13;;;1.40;;
34876;SDS011;21086;44.780;17.194;2022-09-19T05:19:32;3.60;;;1.52;;
34876;SDS011;21086;44.780;17.194;2022-09-19T05:21:59;3.45;;;1.35;;
34876;SDS011;21086;44.780;17.194;2022-09-19T05:24:25;5.15;;;1.30;;
34876;SDS011;21086;44.780;17.194;2022-09-19T05:26:53;2.83;;;1.17;;
34876;SDS011;21086;44.780;17.194;2022-09-19T05:29:20;5.40;;;1.52;;
34876;SDS011;21086;44.780;17.194;2022-09-19T05:31:47;4.70;;;2.13;;
34876;SDS011;21086;44.780;17.194;2022-09-19T05:34:14;6.88;;;2.90;;
34876;SDS011;21086;44.780;17.194;2022-09-19T05:36:41;8.43;;;2.53;;
34876;SDS011;21086;44.780;17.194;2022-09-19T05:39:08;10.25;;;2.72;;
34876;SDS011;21086;44.780;17.194;2022-09-19T05:41:36;5.47;;;2.35;;
34876;SDS011;21086;44.780;17.194;2022-09-19T05:44:04;7.07;;;2.95;;
34876;SDS011;21086;44.780;17.194;2022-09-19T05:46:31;4.47;;;2.80;;
34876;SDS011;21086;44.780;17.194;2022-09-19T05:48:58;5.40;;;2.22;;
34876;SDS011;21086;44.780;17.194;2022-09-19T05:51:25;5.75;;;2.65;;
34876;SDS011;21086;44.780;17.194;2022-09-19T05:53:52;6.35;;;2.47;;
34876;SDS011;21086;44.780;17.194;2022-09-19T05:56:20;3.80;;;2.08;;
34876;SDS011;21086;44.780;17.194;2022-09-19T05:58:50;3.67;;;1.70;;
34876;SDS011;21086;44.780;17.194;2022-09-19T06:01:18;4.38;;;2.55;;
34876;SDS011;21086;44.780;17.194;2022-09-19T06:03:45;5.07;;;2.03;;
34876;SDS011;21086;44.780;17.194;2022-09-19T06:06:13;3.80;;;1.80;;
34876;SDS011;21086;44.780;17.194;2022-09-19T06:08:46;4.97;;;2.00;;
34876;SDS011;21086;44.780;17.194;2022-09-19T06:11:19;1.75;;;1.33;;
34876;SDS011;21086;44.780;17.194;2022-09-19T06:13:47;3.72;;;1.58;;
34876;SDS011;21086;44.780;17.194;2022-09-19T06:16:32;2.95;;;1.55;;
34876;SDS011;21086;44.780;17.194;2022-09-19T06:18:59;4.32;;;1.52;;
34876;SDS011;21086;44.780;17.194;2022-09-19T06:21:26;4.72;;;1.63;;
34876;SDS011;21086;44.780;17.194;2022-09-19T06:23:53;4.97;;;1.08;;
34876;SDS011;21086;44.780;17.194;2022-09-19T06:26:20;3.08;;;1.02;;
34876;SDS011;21086;44.780;17.194;2022-09-19T06:28:48;2.35;;;1.10;;
34876;SDS011;21086;44.780;17.194;2022-09-19T06:31:15;2.22;;;1.10;;
34876;SDS011;21086;44.780;17.194;2022-09-19T06:33:42;4.70;;;1.40;;
34876;SDS011;21086;44.780;17.194;2022-09-19T06:36:09;2.50;;;1.50;;
34876;SDS011;21086;44.780;17.194;2022-09-19T06:38:37;2.33;;;1.40;;
34876;SDS011;21086;44.780;17.194;2022-09-19T06:41:07;2.67;;;1.48;;
34876;SDS011;21086;44.780;17.194;2022-09-19T06:43:35;2.58;;;1.50;;
34876;SDS011;21086;44.780;17.194;2022-09-19T06:46:03;1.95;;;1.27;;
34876;SDS011;21086;44.780;17.194;2022-09-19T06:48:31;2.22;;;1.33;;
34876;SDS011;21086;44.780;17.194;2022-09-19T06:50:58;2.60;;;1.70;;
34876;SDS011;21086;44.780;17.194;2022-09-19T06:53:25;3.00;;;1.20;;
34876;SDS011;21086;44.780;17.194;2022-09-19T06:55:52;6.78;;;1.40;;
34876;SDS011;21086;44.780;17.194;2022-09-19T06:58:19;1.90;;;1.00;;
34876;SDS011;21086;44.780;17.194;2022-09-19T07:00:46;2.35;;;1.45;;
34876;SDS011;21086;44.780;17.194;2022-09-19T07:03:16;3.45;;;1.10;;
34876;SDS011;21086;44.780;17.194;2022-09-19T07:05:44;3.55;;;1.58;;
34876;SDS011;21086;44.780;17.194;2022-09-19T07:08:12;2.85;;;1.30;;
34876;SDS011;21086;44.780;17.194;2022-09-19T07:10:40;6.45;;;1.40;;
34876;SDS011;21086;44.780;17.194;2022-09-19T07:13:09;1.48;;;0.93;;
34876;SDS011;21086;44.780;17.194;2022-09-19T07:15:40;5.35;;;1.25;;
34876;SDS011;21086;44.780;17.194;2022-09-19T07:18:07;3.30;;;0.93;;
34876;SDS011;21086;44.780;17.194;2022-09-19T07:20:36;2.03;;;1.13;;
34876;SDS011;21086;44.780;17.194;2022-09-19T07:23:05;3.65;;;1.52;;
34876;SDS011;21086;44.780;17.194;2022-09-19T07:25:39;1.65;;;1.02;;
34876;SDS011;21086;44.780;17.194;2022-09-19T07:28:08;2.40;;;1.40;;
34876;SDS011;21086;44.780;17.194;2022-09-19T07:30:37;5.07;;;1.60;;
34876;SDS011;21086;44.780;17.194;2022-09-19T07:33:05;4.05;;;1.33;;
34876;SDS011;21086;44.780;17.194;2022-09-19T07:35:35;2.83;;;1.38;;
34876;SDS011;21086;44.780;17.194;2022-09-19T07:38:03;2.05;;;1.10;;
34876;SDS011;21086;44.780;17.194;2022-09-19T07:40:32;2.67;;;1.20;;
34876;SDS011;21086;44.780;17.194;2022-09-19T07:43:00;5.07;;;1.58;;
34876;SDS011;21086;44.780;17.194;2022-09-19T07:45:36;2.35;;;1.42;;
34876;SDS011;21086;44.780;17.194;2022-09-19T07:48:04;1.65;;;1.10;;
34876;SDS011;21086;44.780;17.194;2022-09-19T07:50:31;4.93;;;1.70;;
34876;SDS011;21086;44.780;17.194;2022-09-19T07:53:01;4.07;;;1.75;;
34876;SDS011;21086;44.780;17.194;2022-09-19T07:55:34;3.92;;;1.63;;
34876;SDS011;21086;44.780;17.194;2022-09-19T07:58:02;2.83;;;1.65;;
34876;SDS011;21086;44.780;17.194;2022-09-19T08:00:33;2.45;;;1.30;;
34876;SDS011;21086;44.780;17.194;2022-09-19T08:03:10;2.08;;;1.50;;
34876;SDS011;21086;44.780;17.194;2022-09-19T08:05:43;2.55;;;1.17;;
34876;SDS011;21086;44.780;17.194;2022-09-19T08:08:12;3.33;;;1.40;;
34876;SDS011;21086;44.780;17.194;2022-09-19T08:10:42;2.20;;;1.40;;
34876;SDS011;21086;44.780;17.194;2022-09-19T08:13:13;2.22;;;1.40;;
34876;SDS011;21086;44.780;17.194;2022-09-19T08:15:42;3.97;;;1.60;;
34876;SDS011;21086;44.780;17.194;2022-09-19T08:20:41;3.67;;;1.38;;
34876;SDS011;21086;44.780;17.194;2022-09-19T08:23:09;3.35;;;1.60;;
34876;SDS011;21086;44.780;17.194;2022-09-19T08:25:39;3.30;;;1.83;;
34876;SDS011;21086;44.780;17.194;2022-09-19T08:28:12;5.22;;;1.55;;
34876;SDS011;21086;44.780;17.194;2022-09-19T08:30:40;3.75;;;1.90;;
34876;SDS011;21086;44.780;17.194;2022-09-19T08:33:10;4.38;;;1.75;;
34876;SDS011;21086;44.780;17.194;2022-09-19T08:35:38;2.88;;;1.65;;
34876;SDS011;21086;44.780;17.194;2022-09-19T08:38:08;4.45;;;1.42;;
34876;SDS011;21086;44.780;17.194;2022-09-19T08:43:11;2.00;;;1.25;;
34876;SDS011;21086;44.780;17.194;2022-09-19T08:51:16;4.38;;;1.60;;
34876;SDS011;21086;44.780;17.194;2022-09-19T08:54:01;2.13;;;1.27;;
34876;SDS011;21086;44.780;17.194;2022-09-19T08:56:32;3.53;;;1.30;;
34876;SDS011;21086;44.780;17.194;2022-09-19T08:59:03;2.00;;;1.20;;
34876;SDS011;21086;44.780;17.194;2022-09-19T09:01:37;2.17;;;1.40;;
34876;SDS011;21086;44.780;17.194;2022-09-19T09:04:15;2.70;;;1.65;;
34876;SDS011;21086;44.780;17.194;2022-09-19T09:06:58;3.53;;;1.70;;
34876;SDS011;21086;44.780;17.194;2022-09-19T09:12:34;4.38;;;2.05;;
34876;SDS011;21086;44.780;17.194;2022-09-19T09:21:20;3.55;;;1.80;;
34876;SDS011;21086;44.780;17.194;2022-09-19T09:23:56;5.00;;;2.67;;
34876;SDS011;21086;44.780;17.194;2022-09-19T09:26:48;4.78;;;2.42;;
34876;SDS011;21086;44.780;17.194;2022-09-19T09:30:08;4.05;;;2.22;;
34876;SDS011;21086;44.780;17.194;2022-09-19T09:32:18;4.78;;;2.22;;
34876;SDS011;21086;44.780;17.194;2022-09-19T09:37:39;5.88;;;4.03;;
34876;SDS011;21086;44.780;17.194;2022-09-19T09:40:17;6.13;;;4.00;;
34876;SDS011;21086;44.780;17.194;2022-09-19T09:43:14;7.53;;;4.80;;
34876;SDS011;21086;44.780;17.194;2022-09-19T09:45:47;12.38;;;3.85;;
34876;SDS011;21086;44.780;17.194;2022-09-19T09:56:58;6.53;;;4.25;;
34876;SDS011;21086;44.780;17.194;2022-09-19T09:59:39;5.90;;;3.78;;
34876;SDS011;21086;44.780;17.194;2022-09-19T10:05:44;8.00;;;4.35;;
34876;SDS011;21086;44.780;17.194;2022-09-19T10:08:36;6.90;;;5.60;;
34876;SDS011;21086;44.780;17.194;2022-09-19T10:14:28;8.18;;;4.72;;
34876;SDS011;21086;44.780;17.194;2022-09-19T10:16:59;7.82;;;3.75;;
34876;SDS011;21086;44.780;17.194;2022-09-19T10:19:41;6.93;;;2.92;;
34876;SDS011;21086;44.780;17.194;2022-09-19T10:22:17;7.30;;;5.43;;
34876;SDS011;21086;44.780;17.194;2022-09-19T10:29:55;9.00;;;3.67;;
34876;SDS011;21086;44.780;17.194;2022-09-19T10:32:28;3.55;;;1.55;;
34876;SDS011;21086;44.780;17.194;2022-09-19T10:37:54;3.50;;;1.55;;
34876;SDS011;21086;44.780;17.194;2022-09-19T10:43:23;2.10;;;1.42;;
34876;SDS011;21086;44.780;17.194;2022-09-19T10:46:00;2.33;;;1.42;;
34876;SDS011;21086;44.780;17.194;2022-09-19T10:48:34;2.47;;;1.70;;
34876;SDS011;21086;44.780;17.194;2022-09-19T10:51:06;1.52;;;0.95;;
34876;SDS011;21086;44.780;17.194;2022-09-19T10:53:39;2.40;;;1.23;;
34876;SDS011;21086;44.780;17.194;2022-09-19T10:56:19;2.10;;;1.30;;
34876;SDS011;21086;44.780;17.194;2022-09-19T10:59:03;2.17;;;1.20;;
34876;SDS011;21086;44.780;17.194;2022-09-19T11:01:34;1.35;;;0.90;;
34876;SDS011;21086;44.780;17.194;2022-09-19T11:06:54;2.25;;;1.20;;
34876;SDS011;21086;44.780;17.194;2022-09-19T11:09:33;2.63;;;1.60;;
34876;SDS011;21086;44.780;17.194;2022-09-19T11:12:02;4.07;;;2.33;;
34876;SDS011;21086;44.780;17.194;2022-09-19T11:14:45;3.78;;;1.77;;
34876;SDS011;21086;44.780;17.194;2022-09-19T11:25:46;3.63;;;1.90;;
34876;SDS011;21086;44.780;17.194;2022-09-19T11:30:48;2.60;;;1.90;;
34876;SDS011;21086;44.780;17.194;2022-09-19T11:33:41;2.80;;;1.63;;
34876;SDS011;21086;44.780;17.194;2022-09-19T11:39:49;2.53;;;1.60;;
34876;SDS011;21086;44.780;17.194;2022-09-19T11:56:02;2.00;;;1.40;;
34876;SDS011;21086;44.780;17.194;2022-09-19T12:12:48;3.25;;;1.90;;
34876;SDS011;21086;44.780;17.194;2022-09-19T12:15:45;3.10;;;1.70;;
34876;SDS011;21086;44.780;17.194;2022-09-19T12:18:30;2.13;;;1.42;;
34876;SDS011;21086;44.780;17.194;2022-09-19T12:21:05;2.25;;;1.13;;
34876;SDS011;21086;44.780;17.194;2022-09-19T12:26:32;3.38;;;1.50;;
34876;SDS011;21086;44.780;17.194;2022-09-19T12:31:42;2.15;;;1.23;;
34876;SDS011;21086;44.780;17.194;2022-09-19T12:34:34;2.17;;;1.17;;
34876;SDS011;21086;44.780;17.194;2022-09-19T12:40:16;1.27;;;0.80;;
34876;SDS011;21086;44.780;17.194;2022-09-19T12:42:54;0.95;;;0.60;;
34876;SDS011;21086;44.780;17.194;2022-09-19T12:45:53;1.10;;;0.73;;
34876;SDS011;21086;44.780;17.194;2022-09-19T12:48:27;1.63;;;0.70;;
34876;SDS011;21086;44.780;17.194;2022-09-19T12:51:14;0.55;;;0.47;;
34876;SDS011;21086;44.780;17.194;2022-09-19T12:54:24;1.30;;;0.70;;
34876;SDS011;21086;44.780;17.194;2022-09-19T12:56:51;1.50;;;0.80;;
34876;SDS011;21086;44.780;17.194;2022-09-19T12:59:29;0.68;;;0.47;;
34876;SDS011;21086;44.780;17.194;2022-09-19T13:01:57;1.45;;;0.68;;
34876;SDS011;21086;44.780;17.194;2022-09-19T13:07:39;0.85;;;0.65;;
34876;SDS011;21086;44.780;17.194;2022-09-19T13:12:56;0.45;;;0.38;;
34876;SDS011;21086;44.780;17.194;2022-09-19T13:15:32;0.82;;;0.40;;
34876;SDS011;21086;44.780;17.194;2022-09-19T13:18:04;0.60;;;0.30;;
34876;SDS011;21086;44.780;17.194;2022-09-19T13:20:55;0.68;;;0.45;;
34876;SDS011;21086;44.780;17.194;2022-09-19T13:23:40;1.38;;;0.50;;
34876;SDS011;21086;44.780;17.194;2022-09-19T13:28:49;1.30;;;0.47;;
34876;SDS011;21086;44.780;17.194;2022-09-19T13:31:24;2.05;;;0.40;;
34876;SDS011;21086;44.780;17.194;2022-09-19T13:33:52;0.65;;;0.30;;
34876;SDS011;21086;44.780;17.194;2022-09-19T13:38:52;3.33;;;0.70;;
34876;SDS011;21086;44.780;17.194;2022-09-19T13:44:23;2.35;;;0.60;;
34876;SDS011;21086;44.780;17.194;2022-09-19T13:47:07;0.60;;;0.43;;
34876;SDS011;21086;44.780;17.194;2022-09-19T13:49:46;0.98;;;0.50;;
34876;SDS011;21086;44.780;17.194;2022-09-19T13:52:24;0.50;;;0.40;;
34876;SDS011;21086;44.780;17.194;2022-09-19T13:57:40;0.77;;;0.70;;
34876;SDS011;21086;44.780;17.194;2022-09-19T14:01:04;0.90;;;0.70;;
34876;SDS011;21086;44.780;17.194;2022-09-19T14:03:30;4.40;;;0.93;;
34876;SDS011;21086;44.780;17.194;2022-09-19T14:09:12;0.70;;;0.45;;
34876;SDS011;21086;44.780;17.194;2022-09-19T14:26:46;0.20;;;0.20;;
34876;SDS011;21086;44.780;17.194;2022-09-19T14:45:25;0.90;;;0.47;;
34876;SDS011;21086;44.780;17.194;2022-09-19T14:54:15;0.60;;;0.30;;
34876;SDS011;21086;44.780;17.194;2022-09-19T14:57:00;0.20;;;0.20;;
34876;SDS011;21086;44.780;17.194;2022-09-19T14:59:29;1.35;;;0.30;;
34876;SDS011;21086;44.780;17.194;2022-09-19T15:02:12;0.57;;;0.25;;
34876;SDS011;21086;44.780;17.194;2022-09-19T15:04:48;1.38;;;0.50;;
34876;SDS011;21086;44.780;17.194;2022-09-19T15:07:24;0.32;;;0.20;;
34876;SDS011;21086;44.780;17.194;2022-09-19T15:09:53;0.65;;;0.40;;
34876;SDS011;21086;44.780;17.194;2022-09-19T15:12:21;0.98;;;0.43;;
34876;SDS011;21086;44.780;17.194;2022-09-19T15:15:01;0.55;;;0.40;;
34876;SDS011;21086;44.780;17.194;2022-09-19T15:17:32;2.88;;;0.30;;
34876;SDS011;21086;44.780;17.194;2022-09-19T15:25:08;0.40;;;0.40;;
34876;SDS011;21086;44.780;17.194;2022-09-19T15:27:46;0.80;;;0.50;;
34876;SDS011;21086;44.780;17.194;2022-09-19T15:30:17;0.77;;;0.60;;
34876;SDS011;21086;44.780;17.194;2022-09-19T15:33:03;0.55;;;0.40;;
34876;SDS011;21086;44.780;17.194;2022-09-19T15:35:33;0.80;;;0.45;;
34876;SDS011;21086;44.780;17.194;2022-09-19T15:38:10;0.47;;;0.40;;
34876;SDS011;21086;44.780;17.194;2022-09-19T15:40:42;0.88;;;0.50;;
34876;SDS011;21086;44.780;17.194;2022-09-19T15:43:10;0.50;;;0.38;;
34876;SDS011;21086;44.780;17.194;2022-09-19T15:45:39;0.65;;;0.50;;
34876;SDS011;21086;44.780;17.194;2022-09-19T15:48:12;0.82;;;0.50;;
34876;SDS011;21086;44.780;17.194;2022-09-19T15:50:46;0.70;;;0.50;;
34876;SDS011;21086;44.780;17.194;2022-09-19T15:53:18;0.70;;;0.47;;
34876;SDS011;21086;44.780;17.194;2022-09-19T15:55:55;2.45;;;0.50;;
34876;SDS011;21086;44.780;17.194;2022-09-19T15:58:29;1.08;;;0.60;;
34876;SDS011;21086;44.780;17.194;2022-09-19T16:01:07;0.98;;;0.60;;
34876;SDS011;21086;44.780;17.194;2022-09-19T16:03:38;2.33;;;0.90;;
34876;SDS011;21086;44.780;17.194;2022-09-19T16:06:21;1.58;;;0.85;;
34876;SDS011;21086;44.780;17.194;2022-09-19T16:09:19;0.77;;;0.57;;
34876;SDS011;21086;44.780;17.194;2022-09-19T16:11:56;1.17;;;0.70;;
34876;SDS011;21086;44.780;17.194;2022-09-19T16:14:26;1.75;;;0.60;;
34876;SDS011;21086;44.780;17.194;2022-09-19T16:17:02;1.80;;;0.70;;
34876;SDS011;21086;44.780;17.194;2022-09-19T16:21:56;0.65;;;0.40;;
34876;SDS011;21086;44.780;17.194;2022-09-19T16:24:27;1.77;;;0.70;;
34876;SDS011;21086;44.780;17.194;2022-09-19T16:26:57;2.42;;;0.88;;
34876;SDS011;21086;44.780;17.194;2022-09-19T16:29:26;1.25;;;0.80;;
34876;SDS011;21086;44.780;17.194;2022-09-19T16:31:55;1.02;;;0.65;;
34876;SDS011;21086;44.780;17.194;2022-09-19T16:36:54;0.98;;;0.68;;
34876;SDS011;21086;44.780;17.194;2022-09-19T16:39:24;1.17;;;0.80;;
34876;SDS011;21086;44.780;17.194;2022-09-19T16:44:38;0.73;;;0.52;;
34876;SDS011;21086;44.780;17.194;2022-09-19T16:47:13;1.42;;;0.80;;
34876;SDS011;21086;44.780;17.194;2022-09-19T16:49:43;1.73;;;0.90;;
34876;SDS011;21086;44.780;17.194;2022-09-19T16:54:46;0.45;;;0.43;;
34876;SDS011;21086;44.780;17.194;2022-09-19T16:57:14;2.13;;;0.82;;
34876;SDS011;21086;44.780;17.194;2022-09-19T16:59:45;1.45;;;0.73;;
34876;SDS011;21086;44.780;17.194;2022-09-19T17:02:31;2.05;;;0.75;;
34876;SDS011;21086;44.780;17.194;2022-09-19T17:05:03;3.38;;;0.80;;
34876;SDS011;21086;44.780;17.194;2022-09-19T17:07:39;0.95;;;0.75;;
34876;SDS011;21086;44.780;17.194;2022-09-19T17:10:07;2.63;;;0.88;;
34876;SDS011;21086;44.780;17.194;2022-09-19T17:12:37;8.13;;;1.45;;
34876;SDS011;21086;44.780;17.194;2022-09-19T17:15:08;1.30;;;1.00;;
34876;SDS011;21086;44.780;17.194;2022-09-19T17:17:54;2.20;;;1.27;;
34876;SDS011;21086;44.780;17.194;2022-09-19T17:20:21;3.58;;;2.00;;
34876;SDS011;21086;44.780;17.194;2022-09-19T17:22:49;2.30;;;1.58;;
34876;SDS011;21086;44.780;17.194;2022-09-19T17:25:21;2.08;;;1.40;;
34876;SDS011;21086;44.780;17.194;2022-09-19T17:28:05;2.03;;;1.30;;
34876;SDS011;21086;44.780;17.194;2022-09-19T17:30:31;1.98;;;1.40;;
34876;SDS011;21086;44.780;17.194;2022-09-19T17:32:58;3.33;;;1.88;;
34876;SDS011;21086;44.780;17.194;2022-09-19T17:35:30;3.15;;;2.20;;
34876;SDS011;21086;44.780;17.194;2022-09-19T17:37:57;2.88;;;1.85;;
34876;SDS011;21086;44.780;17.194;2022-09-19T17:40:24;3.85;;;2.20;;
34876;SDS011;21086;44.780;17.194;2022-09-19T17:42:53;3.20;;;2.10;;
34876;SDS011;21086;44.780;17.194;2022-09-19T17:45:20;3.00;;;2.22;;
34876;SDS011;21086;44.780;17.194;2022-09-19T17:47:49;2.67;;;1.70;;
34876;SDS011;21086;44.780;17.194;2022-09-19T17:50:16;2.55;;;1.60;;
34876;SDS011;21086;44.780;17.194;2022-09-19T17:52:43;2.80;;;1.50;;
34876;SDS011;21086;44.780;17.194;2022-09-19T17:55:10;3.28;;;1.70;;
34876;SDS011;21086;44.780;17.194;2022-09-19T17:57:37;2.30;;;1.35;;
34876;SDS011;21086;44.780;17.194;2022-09-19T18:00:04;3.83;;;1.38;;
34876;SDS011;21086;44.780;17.194;2022-09-19T18:02:32;5.68;;;1.60;;
34876;SDS011;21086;44.780;17.194;2022-09-19T18:05:17;2.83;;;1.80;;
34876;SDS011;21086;44.780;17.194;2022-09-19T18:07:45;5.15;;;1.85;;
34876;SDS011;21086;44.780;17.194;2022-09-19T18:10:12;6.25;;;1.95;;
34876;SDS011;21086;44.780;17.194;2022-09-19T18:12:39;3.33;;;2.00;;
34876;SDS011;21086;44.780;17.194;2022-09-19T18:15:06;5.22;;;1.70;;
34876;SDS011;21086;44.780;17.194;2022-09-19T18:17:38;3.67;;;2.10;;
34876;SDS011;21086;44.780;17.194;2022-09-19T18:20:05;3.58;;;1.77;;
34876;SDS011;21086;44.780;17.194;2022-09-19T18:22:32;6.63;;;2.47;;
34876;SDS011;21086;44.780;17.194;2022-09-19T18:25:00;4.03;;;2.67;;
34876;SDS011;21086;44.780;17.194;2022-09-19T18:27:33;3.28;;;1.88;;
34876;SDS011;21086;44.780;17.194;2022-09-19T18:30:01;2.47;;;1.50;;
34876;SDS011;21086;44.780;17.194;2022-09-19T18:32:28;1.67;;;0.90;;
34876;SDS011;21086;44.780;17.194;2022-09-19T18:34:55;3.03;;;1.80;;
34876;SDS011;21086;44.780;17.194;2022-09-19T18:37:24;2.47;;;1.63;;
34876;SDS011;21086;44.780;17.194;2022-09-19T18:39:51;4.20;;;2.13;;